M I D A S
Marine Information and Data Acquisition System
Tripno 247 of the Zeeleeuw from 2002-04-22 07:12:33 to 2002-04-22 14:24:39
Back to CruiseResearch ActivitiesStationsMapUnderway DataData graphs

EquipmentUnitsComments
TimeDGPSUTC
LatitudeDGPSDM.mWGS84
LongitudeDGPSDM.mWGS84
SpeedMeteo Stationm/sRelative wind speed
DirectionMeteo StationdegRelative wind direction
TemperatureMeteo Stationdeg CelciusAir temperature
PressureMeteo StationPaAtmospheric pressure
HumidityMeteo Station%Relative humidity
Missing or incorrect values are displayed as -999
Metereological data collected by the RV Zeeleeuw from 2002-04-22 07:12:33 to 2002-04-22 14:24:39
                                                                                    Next 1000 lines
Time Latitude Longitude Speed Direction Temperature Pressure Humidity
2002-04-22 07:12:42 51°15.944 2°53.657 6.6 260 12.2 103180 69
2002-04-22 07:12:47 51°15.961 2°53.644 7.8 272 12.2 103180 69
2002-04-22 07:12:52 51°15.978 2°53.628 6.7 258 12.2 103180 69
2002-04-22 07:12:57 51°15.995 2°53.616 7.2 268 12.2 103180 69
2002-04-22 07:13:02 51°16.011 2°53.599 6.9 258 12.2 103180 69
2002-04-22 07:13:07 51°16.029 2°53.587 7.1 267 12.2 103180 69
2002-04-22 07:13:12 51°16.045 2°53.571 6.4 259 12.2 103180 69
2002-04-22 07:13:17 51°16.062 2°53.558 7.2 265 12.2 103180 69
2002-04-22 07:13:22 51°16.079 2°53.542 6.9 260 12.1 103180 69
2002-04-22 07:13:27 51°16.096 2°53.53 7.3 265 12.1 103180 69
2002-04-22 07:13:32 51°16.112 2°53.514 6.7 263 12.1 103180 69
2002-04-22 07:13:37 51°16.129 2°53.501 6.8 261 12.1 103180 69
2002-04-22 07:13:42 51°16.146 2°53.486 7 262 12.1 103180 69
2002-04-22 07:13:48 51°16.167 2°53.47 6.9 260 12.1 103180 69
2002-04-22 07:13:52 51°16.179 2°53.458 7 265 12.1 103180 69
2002-04-22 07:13:57 51°16.196 2°53.443 7.1 260 12.1 103180 69
2002-04-22 07:14:02 51°16.213 2°53.429 7 265 12.1 103180 70
2002-04-22 07:14:07 51°16.229 2°53.415 6.9 257 12.1 103180 70
2002-04-22 07:14:12 51°16.246 2°53.401 7.4 266 12 103180 70
2002-04-22 07:14:17 51°16.263 2°53.386 6.5 256 12 103180 70
2002-04-22 07:14:22 51°16.28 2°53.372 7.2 266 12 103180 70
2002-04-22 07:14:27 51°16.296 2°53.357 6.5 257 12 103180 70
2002-04-22 07:14:32 51°16.313 2°53.343 7.3 268 12 103190 70
2002-04-22 07:14:37 51°16.329 2°53.327 6.8 257 12 103190 70
2002-04-22 07:14:42 51°16.347 2°53.314 7.6 266 12 103190 70
2002-04-22 07:14:47 51°16.363 2°53.298 7 257 12 103190 70
2002-04-22 07:14:52 51°16.38 2°53.285 7.6 266 12 103180 70
2002-04-22 07:14:58 51°16.4 2°53.266 7 260 12 103180 70
2002-04-22 07:15:02 51°16.414 2°53.256 7.3 267 11.9 103190 70
2002-04-22 07:15:07 51°16.431 2°53.241 7 258 11.9 103190 70
2002-04-22 07:15:12 51°16.449 2°53.229 7.5 266 11.9 103190 70
2002-04-22 07:15:18 51°16.469 2°53.211 6.3 261 11.9 103190 70
2002-04-22 07:15:22 51°16.483 2°53.203 7.4 265 11.9 103180 71
2002-04-22 07:15:27 51°16.5 2°53.188 7.1 262 11.9 103180 71
2002-04-22 07:15:32 51°16.518 2°53.177 7.5 265 11.9 103190 71
2002-04-22 07:15:37 51°16.535 2°53.162 7.1 263 11.9 103190 71
2002-04-22 07:15:42 51°16.553 2°53.15 7 265 11.9 103180 71
2002-04-22 07:15:47 51°16.569 2°53.136 7.3 265 11.9 103180 71
2002-04-22 07:15:52 51°16.587 2°53.123 7.2 262 11.9 103190 71
2002-04-22 07:15:57 51°16.604 2°53.11 7.1 267 11.9 103190 71
2002-04-22 07:16:02 51°16.621 2°53.097 6.9 262 11.9 103180 71
2002-04-22 07:16:08 51°16.641 2°53.08 7.5 270 11.9 103180 71
2002-04-22 07:16:12 51°16.655 2°53.07 6.7 261 11.9 103190 71
2002-04-22 07:16:17 51°16.672 2°53.057 7.9 269 11.9 103190 71
2002-04-22 07:16:22 51°16.689 2°53.042 6.4 259 11.8 103180 71
2002-04-22 07:16:27 51°16.706 2°53.03 7.6 267 11.8 103180 71
2002-04-22 07:16:32 51°16.722 2°53.014 6.9 258 11.9 103180 71
2002-04-22 07:16:37 51°16.739 2°53.001 7.4 268 11.9 103180 71
2002-04-22 07:16:42 51°16.755 2°52.984 6.6 257 11.8 103180 71
2002-04-22 07:16:48 51°16.775 2°52.968 7.7 268 11.8 103180 71
2002-04-22 07:16:52 51°16.787 2°52.954 6.8 257 11.8 103180 71
2002-04-22 07:16:57 51°16.804 2°52.94 7.1 267 11.8 103180 71
2002-04-22 07:17:02 51°16.819 2°52.923 6.8 258 11.8 103180 71
2002-04-22 07:17:08 51°16.839 2°52.905 7 264 11.8 103180 71
2002-04-22 07:17:12 51°16.851 2°52.891 6.8 259 11.8 103180 72
2002-04-22 07:17:18 51°16.871 2°52.874 7.3 263 11.8 103180 72
2002-04-22 07:17:22 51°16.883 2°52.86 6.7 259 11.8 103180 72
2002-04-22 07:17:27 51°16.899 2°52.845 7.3 261 11.8 103180 72
2002-04-22 07:17:32 51°16.915 2°52.829 6.7 261 11.8 103180 72
2002-04-22 07:17:37 51°16.932 2°52.814 7.2 259 11.8 103180 72
2002-04-22 07:17:42 51°16.948 2°52.797 6.9 259 11.8 103180 72
2002-04-22 07:17:47 51°16.964 2°52.783 7 257 11.8 103180 72
2002-04-22 07:17:52 51°16.98 2°52.767 7.1 259 11.8 103180 72
2002-04-22 07:17:57 51°16.997 2°52.752 7.1 255 11.8 103180 72
2002-04-22 07:18:02 51°17.013 2°52.736 7.3 258 11.8 103190 72
2002-04-22 07:18:08 51°17.033 2°52.718 6.6 255 11.8 103190 72
2002-04-22 07:18:12 51°17.046 2°52.705 7.3 260 11.8 103180 73
2002-04-22 07:18:18 51°17.066 2°52.687 6.5 255 11.8 103180 73
2002-04-22 07:18:22 51°17.079 2°52.674 7 260 11.8 103190 73
2002-04-22 07:18:28 51°17.098 2°52.656 6.5 255 11.8 103190 73
2002-04-22 07:18:32 51°17.112 2°52.644 7.2 261 11.8 103180 73
2002-04-22 07:18:37 51°17.128 2°52.628 6.5 253 11.8 103180 73
2002-04-22 07:18:42 51°17.145 2°52.614 7.5 258 11.8 103190 74
2002-04-22 07:18:47 51°17.161 2°52.598 6.9 252 11.8 103190 74
2002-04-22 07:18:52 51°17.178 2°52.584 7.7 263 11.8 103190 74
2002-04-22 07:18:57 51°17.193 2°52.567 7.1 252 11.8 103190 74
2002-04-22 07:19:02 51°17.21 2°52.553 7.8 262 11.8 103190 74
2002-04-22 07:19:07 51°17.226 2°52.536 7.2 257 11.8 103190 74
2002-04-22 07:19:12 51°17.242 2°52.522 8 265 11.8 103190 74
2002-04-22 07:19:18 51°17.26 2°52.5 7.4 257 11.8 103190 74
2002-04-22 07:19:22 51°17.273 2°52.488 8.3 264 11.8 103190 75
2002-04-22 07:19:27 51°17.288 2°52.469 7.8 261 11.8 103190 75
2002-04-22 07:19:32 51°17.304 2°52.452 8.3 264 11.8 103190 75
2002-04-22 07:19:37 51°17.318 2°52.432 8.3 261 11.8 103190 75
2002-04-22 07:19:42 51°17.333 2°52.415 8.9 265 11.8 103190 74
2002-04-22 07:19:47 51°17.347 2°52.394 7.9 260 11.8 103190 74
2002-04-22 07:19:52 51°17.362 2°52.376 8.6 262 11.8 103180 74
2002-04-22 07:19:57 51°17.375 2°52.355 8.3 265 11.8 103180 74
2002-04-22 07:20:02 51°17.389 2°52.335 8.8 263 11.8 103190 74
2002-04-22 07:20:07 51°17.403 2°52.314 8.8 265 11.8 103190 74
2002-04-22 07:20:12 51°17.416 2°52.293 8.9 264 11.7 103180 74
2002-04-22 07:20:17 51°17.429 2°52.272 9 266 11.7 103180 74
2002-04-22 07:20:22 51°17.443 2°52.251 8.4 264 11.7 103180 73
2002-04-22 07:20:27 51°17.456 2°52.23 8.8 265 11.7 103180 73
2002-04-22 07:20:32 51°17.47 2°52.209 8.5 261 11.7 103180 73
2002-04-22 07:20:37 51°17.483 2°52.188 8.8 265 11.7 103180 73
2002-04-22 07:20:43 51°17.499 2°52.164 8.7 261 11.7 103180 73
2002-04-22 07:20:47 51°17.509 2°52.146 8.8 267 11.7 103180 73
2002-04-22 07:20:52 51°17.522 2°52.124 8.9 259 11.7 103180 73
2002-04-22 07:20:58 51°17.536 2°52.097 9.5 265 11.7 103180 73
2002-04-22 07:21:02 51°17.546 2°52.079 8.8 260 11.7 103180 73
2002-04-22 07:21:07 51°17.558 2°52.056 9.2 263 11.7 103180 73
2002-04-22 07:21:12 51°17.57 2°52.033 8.8 259 11.7 103180 73
2002-04-22 07:21:17 51°17.582 2°52.011 9.3 264 11.7 103180 73
2002-04-22 07:21:22 51°17.593 2°51.988 8.8 258 11.6 103180 73
2002-04-22 07:21:27 51°17.605 2°51.965 9.4 265 11.6 103180 73
2002-04-22 07:21:32 51°17.616 2°51.942 8.9 259 11.6 103180 74
2002-04-22 07:21:37 51°17.628 2°51.919 8.9 265 11.6 103180 74
2002-04-22 07:21:42 51°17.639 2°51.895 8.8 261 11.6 103180 74
2002-04-22 07:21:47 51°17.65 2°51.872 9.1 266 11.6 103180 74
2002-04-22 07:21:52 51°17.661 2°51.848 8.5 259 11.6 103180 74
2002-04-22 07:21:57 51°17.672 2°51.826 9.5 266 11.6 103180 74
2002-04-22 07:22:02 51°17.682 2°51.801 8.4 261 11.6 103180 74
2002-04-22 07:22:07 51°17.693 2°51.778 9.3 267 11.6 103180 74
2002-04-22 07:22:12 51°17.703 2°51.754 8.7 258 11.6 103180 74
2002-04-22 07:22:17 51°17.715 2°51.731 9 265 11.6 103180 74
2002-04-22 07:22:22 51°17.724 2°51.706 8.6 260 11.6 103180 74
2002-04-22 07:22:27 51°17.736 2°51.684 8.9 267 11.6 103180 74
2002-04-22 07:22:32 51°17.746 2°51.659 8.2 262 11.6 103180 74
2002-04-22 07:22:37 51°17.757 2°51.637 8.9 268 11.6 103180 74
2002-04-22 07:22:42 51°17.768 2°51.613 8 261 11.6 103170 74
2002-04-22 07:22:47 51°17.779 2°51.59 8.8 267 11.6 103170 74
2002-04-22 07:22:52 51°17.789 2°51.566 7.7 258 11.6 103170 73
2002-04-22 07:22:57 51°17.801 2°51.544 8.8 265 11.6 103170 73
2002-04-22 07:23:02 51°17.811 2°51.52 7.5 259 11.6 103170 74
2002-04-22 07:23:08 51°17.825 2°51.493 8.5 265 11.6 103170 74
2002-04-22 07:23:12 51°17.833 2°51.473 7.5 259 11.6 103170 74
2002-04-22 07:23:17 51°17.845 2°51.451 8.4 265 11.6 103170 74
2002-04-22 07:23:22 51°17.854 2°51.427 7.4 257 11.5 103170 74
2002-04-22 07:23:27 51°17.866 2°51.404 8.5 264 11.5 103170 74
2002-04-22 07:23:32 51°17.876 2°51.38 7.7 259 11.5 103170 74
2002-04-22 07:23:37 51°17.888 2°51.358 8.1 262 11.5 103170 74
2002-04-22 07:23:42 51°17.898 2°51.333 7.7 257 11.5 103170 74
2002-04-22 07:23:47 51°17.91 2°51.31 8.2 264 11.5 103170 74
2002-04-22 07:23:52 51°17.919 2°51.286 7.3 257 11.6 103170 74
2002-04-22 07:23:57 51°17.931 2°51.263 8 265 11.6 103170 74
2002-04-22 07:24:02 51°17.941 2°51.238 7.5 258 11.5 103170 75
2002-04-22 07:24:07 51°17.953 2°51.215 8.4 264 11.5 103170 75
2002-04-22 07:24:12 51°17.962 2°51.191 7.4 261 11.5 103170 75
2002-04-22 07:24:17 51°17.974 2°51.168 7.6 264 11.5 103170 75
2002-04-22 07:24:22 51°17.984 2°51.143 7.7 258 11.5 103170 75
2002-04-22 07:24:28 51°17.998 2°51.115 8.3 263 11.5 103170 75
2002-04-22 07:24:32 51°18.006 2°51.094 7.5 259 11.5 103170 75
2002-04-22 07:24:38 51°18.02 2°51.067 8.2 263 11.5 103170 75
2002-04-22 07:24:42 51°18.027 2°51.047 7.3 258 11.5 103170 75
2002-04-22 07:24:47 51°18.039 2°51.024 7.8 263 11.5 103170 75
2002-04-22 07:24:52 51°18.049 2°50.999 7.1 257 11.5 103170 75
2002-04-22 07:24:57 51°18.061 2°50.976 7.9 262 11.5 103170 75
2002-04-22 07:25:02 51°18.071 2°50.951 7.9 260 11.5 103170 75
2002-04-22 07:25:08 51°18.085 2°50.923 7.7 262 11.5 103170 75
2002-04-22 07:25:12 51°18.093 2°50.903 7.3 259 11.5 103170 75
2002-04-22 07:25:17 51°18.105 2°50.879 7.6 260 11.5 103170 75
2002-04-22 07:25:22 51°18.115 2°50.854 7.4 260 11.5 103170 75
2002-04-22 07:25:27 51°18.126 2°50.831 7.4 260 11.5 103170 75
2002-04-22 07:25:32 51°18.136 2°50.806 7.4 260 11.5 103170 76
2002-04-22 07:25:37 51°18.148 2°50.783 7.9 258 11.5 103170 76
2002-04-22 07:25:42 51°18.158 2°50.758 8.3 260 11.5 103170 76
2002-04-22 07:25:47 51°18.169 2°50.734 8 259 11.5 103170 76
2002-04-22 07:25:52 51°18.179 2°50.71 8.4 263 11.5 103170 76
2002-04-22 07:25:57 51°18.19 2°50.686 8 259 11.5 103170 76
2002-04-22 07:26:02 51°18.201 2°50.661 8.3 262 11.5 103160 76
2002-04-22 07:26:07 51°18.212 2°50.637 8 261 11.5 103160 76
2002-04-22 07:26:12 51°18.222 2°50.613 8.3 264 11.4 103170 76
2002-04-22 07:26:17 51°18.233 2°50.589 7.8 259 11.4 103170 76
2002-04-22 07:26:22 51°18.243 2°50.565 8.4 264 11.4 103160 76
2002-04-22 07:26:28 51°18.256 2°50.536 8.3 258 11.4 103160 76
2002-04-22 07:26:32 51°18.265 2°50.517 8.3 264 11.4 103160 76
2002-04-22 07:26:37 51°18.275 2°50.492 8.1 258 11.4 103160 76
2002-04-22 07:26:42 51°18.286 2°50.468 8.3 264 11.4 103170 76
2002-04-22 07:26:47 51°18.296 2°50.444 8.1 256 11.4 103170 76
2002-04-22 07:26:52 51°18.307 2°50.42 8.5 263 11.4 103170 76
2002-04-22 07:26:57 51°18.317 2°50.395 7.5 254 11.4 103170 76
2002-04-22 07:27:02 51°18.328 2°50.371 8.1 262 11.4 103170 76
2002-04-22 07:27:08 51°18.34 2°50.342 8.2 256 11.4 103170 76
2002-04-22 07:27:12 51°18.349 2°50.323 8.7 263 11.4 103170 76
2002-04-22 07:27:17 51°18.358 2°50.298 8 259 11.4 103170 76
2002-04-22 07:27:22 51°18.37 2°50.275 8.7 265 11.4 103170 77
2002-04-22 07:27:27 51°18.379 2°50.25 8.1 256 11.4 103170 77
2002-04-22 07:27:32 51°18.391 2°50.226 8.9 265 11.4 103170 77
2002-04-22 07:27:37 51°18.4 2°50.201 8.3 257 11.4 103170 77
2002-04-22 07:27:42 51°18.412 2°50.177 8.7 265 11.4 103170 77
2002-04-22 07:27:47 51°18.421 2°50.152 8 258 11.4 103170 77
2002-04-22 07:27:52 51°18.433 2°50.128 8.8 264 11.4 103180 77
2002-04-22 07:27:57 51°18.443 2°50.103 8.2 257 11.4 103180 77
2002-04-22 07:28:02 51°18.455 2°50.08 8.6 265 11.4 103170 77
2002-04-22 07:28:07 51°18.464 2°50.054 8.2 255 11.4 103170 77
2002-04-22 07:28:12 51°18.476 2°50.031 8.6 263 11.4 103170 77
2002-04-22 07:28:17 51°18.486 2°50.005 8 255 11.4 103170 77
2002-04-22 07:28:22 51°18.497 2°49.981 8.5 263 11.4 103170 77
2002-04-22 07:28:27 51°18.507 2°49.956 7.6 255 11.4 103170 77
2002-04-22 07:28:32 51°18.519 2°49.932 8.5 262 11.3 103170 77
2002-04-22 07:28:38 51°18.531 2°49.902 7.9 256 11.3 103170 77
2002-04-22 07:28:42 51°18.54 2°49.883 8.4 261 11.4 103170 77
2002-04-22 07:28:47 51°18.549 2°49.858 7.7 256 11.4 103170 77
2002-04-22 07:28:52 51°18.561 2°49.834 8.3 263 11.3 103170 77
2002-04-22 07:28:57 51°18.57 2°49.808 7.6 255 11.3 103170 77
2002-04-22 07:29:02 51°18.582 2°49.785 8.9 263 11.3 103170 78
2002-04-22 07:29:07 51°18.591 2°49.759 8 258 11.3 103170 78
2002-04-22 07:29:12 51°18.602 2°49.735 8.6 263 11.3 103170 78
2002-04-22 07:29:17 51°18.611 2°49.71 7.6 257 11.3 103170 78
2002-04-22 07:29:22 51°18.623 2°49.686 8.1 265 11.3 103170 78
2002-04-22 07:29:28 51°18.633 2°49.656 7.5 259 11.3 103170 78
2002-04-22 07:29:32 51°18.643 2°49.637 8.4 264 11.3 103170 78
2002-04-22 07:29:37 51°18.651 2°49.612 7.6 259 11.3 103170 78
2002-04-22 07:29:42 51°18.663 2°49.589 8.1 265 11.3 103170 78
2002-04-22 07:29:47 51°18.672 2°49.564 8.1 262 11.3 103170 78
2002-04-22 07:29:52 51°18.682 2°49.54 8.2 265 11.3 103170 78
2002-04-22 07:29:57 51°18.691 2°49.515 7.8 262 11.3 103170 78
2002-04-22 07:30:02 51°18.702 2°49.492 8.2 266 11.3 103170 78
2002-04-22 07:30:08 51°18.713 2°49.462 8 261 11.3 103170 78
2002-04-22 07:30:12 51°18.722 2°49.444 8.6 267 11.2 103170 78
2002-04-22 07:30:17 51°18.731 2°49.419 7.9 262 11.2 103170 78
2002-04-22 07:30:22 51°18.742 2°49.397 8.7 267 11.2 103170 78
2002-04-22 07:30:28 51°18.753 2°49.367 7.6 262 11.2 103170 78
2002-04-22 07:30:32 51°18.762 2°49.349 8.3 267 11.2 103170 78
2002-04-22 07:30:37 51°18.771 2°49.324 7.5 263 11.2 103170 78
2002-04-22 07:30:42 51°18.782 2°49.301 8.3 264 11.2 103170 78
2002-04-22 07:30:47 51°18.791 2°49.277 8.4 264 11.2 103170 78
2002-04-22 07:30:52 51°18.802 2°49.253 8.5 263 11.2 103170 78
2002-04-22 07:30:57 51°18.811 2°49.229 8 266 11.2 103170 78
2002-04-22 07:31:02 51°18.822 2°49.205 8.3 263 11.2 103170 78
2002-04-22 07:31:07 51°18.831 2°49.181 8.3 267 11.2 103170 78
2002-04-22 07:31:12 51°18.842 2°49.158 7.7 263 11.2 103170 78
2002-04-22 07:31:17 51°18.852 2°49.134 8.2 266 11.2 103170 78
2002-04-22 07:31:22 51°18.862 2°49.11 7.9 262 11.2 103170 78
2002-04-22 07:31:28 51°18.873 2°49.081 8.1 265 11.2 103170 78
2002-04-22 07:31:32 51°18.882 2°49.062 8 261 11.2 103170 78
2002-04-22 07:31:37 51°18.892 2°49.038 8.5 267 11.2 103170 78
2002-04-22 07:31:42 51°18.902 2°49.014 7.9 261 11.2 103170 78
2002-04-22 07:31:47 51°18.912 2°48.99 8.3 267 11.2 103170 78
2002-04-22 07:31:52 51°18.922 2°48.965 7.6 261 11.2 103160 78
2002-04-22 07:31:57 51°18.932 2°48.942 8.1 265 11.2 103160 78
2002-04-22 07:32:02 51°18.942 2°48.917 8 262 11.1 103160 78
2002-04-22 07:32:07 51°18.953 2°48.893 8.2 266 11.1 103160 78
2002-04-22 07:32:12 51°18.962 2°48.868 8 259 11.1 103160 78
2002-04-22 07:32:17 51°18.973 2°48.844 8.2 266 11.1 103160 78
2002-04-22 07:32:22 51°18.982 2°48.819 7.8 258 11.1 103160 78
2002-04-22 07:32:27 51°18.993 2°48.795 8.4 266 11.1 103160 78
2002-04-22 07:32:32 51°19.002 2°48.77 7.7 258 11.1 103160 78
2002-04-22 07:32:37 51°19.013 2°48.746 8.4 266 11.1 103160 78
2002-04-22 07:32:42 51°19.021 2°48.72 7.3 257 11.1 103160 78
2002-04-22 07:32:47 51°19.032 2°48.697 8.2 265 11.1 103160 78
2002-04-22 07:32:52 51°19.041 2°48.672 7.5 259 11.1 103160 78
2002-04-22 07:32:57 51°19.052 2°48.648 8.5 267 11.1 103160 78
2002-04-22 07:33:02 51°19.061 2°48.623 7.3 261 11.1 103160 78
2002-04-22 07:33:07 51°19.073 2°48.6 7.8 264 11.1 103160 78
2002-04-22 07:33:12 51°19.082 2°48.575 7.4 261 11.1 103160 78
2002-04-22 07:33:17 51°19.093 2°48.552 7.8 262 11.1 103160 78
2002-04-22 07:33:22 51°19.103 2°48.528 7.7 263 11.1 103160 78
2002-04-22 07:33:28 51°19.116 2°48.5 7.8 262 11.1 103160 78
2002-04-22 07:33:32 51°19.124 2°48.48 7.5 262 11.1 103160 78
2002-04-22 07:33:37 51°19.135 2°48.456 8 260 11.1 103160 78
2002-04-22 07:33:42 51°19.144 2°48.431 7.5 261 11.1 103160 78
2002-04-22 07:33:47 51°19.155 2°48.408 7.4 261 11.1 103160 78
2002-04-22 07:33:52 51°19.165 2°48.384 7.9 260 11.1 103160 78
2002-04-22 07:33:57 51°19.176 2°48.36 7.8 262 11.1 103160 78
2002-04-22 07:34:03 51°19.187 2°48.33 7.3 258 11.1 103160 79
2002-04-22 07:34:07 51°19.197 2°48.312 8.2 263 11.1 103160 79
2002-04-22 07:34:12 51°19.205 2°48.287 7.6 258 11.1 103160 79
2002-04-22 07:34:18 51°19.219 2°48.259 7.9 263 11.1 103160 79
2002-04-22 07:34:22 51°19.225 2°48.238 7.6 259 11.1 103160 79
2002-04-22 07:34:27 51°19.236 2°48.215 7.9 260 11.1 103160 79
2002-04-22 07:34:32 51°19.245 2°48.19 7.7 261 11.1 103160 79
2002-04-22 07:34:37 51°19.255 2°48.166 7.6 260 11.1 103160 79
2002-04-22 07:34:42 51°19.265 2°48.142 7.7 260 11.1 103150 79
2002-04-22 07:34:47 51°19.276 2°48.118 7.8 260 11.1 103150 79
2002-04-22 07:34:52 51°19.286 2°48.093 7.4 260 11.1 103160 79
2002-04-22 07:34:57 51°19.296 2°48.07 7.3 262 11.1 103160 79
2002-04-22 07:35:02 51°19.306 2°48.045 7.8 259 11.1 103160 79
2002-04-22 07:35:08 51°19.32 2°48.017 7.4 258 11.1 103160 79
2002-04-22 07:35:12 51°19.327 2°47.997 7.6 259 11.1 103160 79
2002-04-22 07:35:17 51°19.338 2°47.973 7.6 259 11.1 103160 79
2002-04-22 07:35:22 51°19.348 2°47.949 7.6 258 11.1 103150 79
2002-04-22 07:35:28 51°19.362 2°47.92 7.7 258 11.1 103150 79
2002-04-22 07:35:32 51°19.369 2°47.9 8.2 259 11.1 103160 79
2002-04-22 07:35:37 51°19.38 2°47.876 8.1 253 11.1 103160 79
2002-04-22 07:35:43 51°19.392 2°47.846 8.7 264 11.1 103160 80
2002-04-22 07:35:47 51°19.4 2°47.826 7.7 254 11.1 103160 80
2002-04-22 07:35:52 51°19.41 2°47.802 8.5 265 11.1 103150 80
2002-04-22 07:35:58 51°19.422 2°47.772 7.9 256 11.1 103150 80
2002-04-22 07:36:02 51°19.431 2°47.753 8.5 263 11.1 103160 80
2002-04-22 07:36:07 51°19.44 2°47.727 8.1 258 11.1 103160 80
2002-04-22 07:36:12 51°19.451 2°47.703 8.2 264 11.1 103160 80
2002-04-22 07:36:17 51°19.46 2°47.678 8.2 262 11.1 103160 80
2002-04-22 07:36:22 51°19.472 2°47.655 8 266 11.1 103160 80
2002-04-22 07:36:27 51°19.481 2°47.629 7.6 260 11.1 103160 80
2002-04-22 07:36:32 51°19.493 2°47.606 8.4 264 11.1 103160 80
2002-04-22 07:36:37 51°19.503 2°47.581 7.9 261 11.1 103160 80
2002-04-22 07:36:42 51°19.514 2°47.557 7.9 265 11 103160 80
2002-04-22 07:36:47 51°19.524 2°47.532 8.2 260 11 103160 80
2002-04-22 07:36:52 51°19.536 2°47.508 8.6 266 11 103160 80
2002-04-22 07:36:57 51°19.545 2°47.483 7.6 260 11 103160 80
2002-04-22 07:37:03 51°19.56 2°47.455 7.9 266 11 103160 80
2002-04-22 07:37:07 51°19.567 2°47.434 7.9 260 11 103160 80
2002-04-22 07:37:12 51°19.578 2°47.411 7.9 264 11 103150 80
2002-04-22 07:37:18 51°19.59 2°47.381 8.1 264 11 103150 80
2002-04-22 07:37:22 51°19.599 2°47.362 7.7 261 11 103160 80
2002-04-22 07:37:27 51°19.609 2°47.338 8.7 268 11 103160 80
2002-04-22 07:37:32 51°19.62 2°47.313 8 263 11 103160 80
2002-04-22 07:37:38 51°19.632 2°47.284 8.6 267 11 103160 80
2002-04-22 07:37:42 51°19.64 2°47.265 8 260 11 103160 80
2002-04-22 07:37:47 51°19.65 2°47.24 8.6 268 11 103160 80
2002-04-22 07:37:52 51°19.659 2°47.215 8.1 257 11 103150 80
2002-04-22 07:37:57 51°19.67 2°47.19 9.4 269 11 103150 80
2002-04-22 07:38:02 51°19.678 2°47.164 7.9 259 11 103150 80
2002-04-22 07:38:07 51°19.687 2°47.139 9 267 11 103150 80
2002-04-22 07:38:12 51°19.695 2°47.112 8.6 258 11 103150 80
2002-04-22 07:38:17 51°19.704 2°47.087 9.4 267 11 103150 80
2002-04-22 07:38:22 51°19.711 2°47.061 8 258 11 103150 80
2002-04-22 07:38:27 51°19.72 2°47.035 8.8 266 11 103150 80
2002-04-22 07:38:32 51°19.726 2°47.009 8.7 258 11 103140 80
2002-04-22 07:38:38 51°19.735 2°46.977 9.2 264 11 103140 80
2002-04-22 07:38:42 51°19.74 2°46.955 8.7 258 11 103150 80
2002-04-22 07:38:47 51°19.747 2°46.929 9.5 264 11 103150 80
2002-04-22 07:38:52 51°19.752 2°46.901 8.9 257 11 103150 79
2002-04-22 07:38:57 51°19.759 2°46.874 9 267 11 103150 79
2002-04-22 07:39:02 51°19.765 2°46.847 8.9 258 11 103150 79
2002-04-22 07:39:07 51°19.772 2°46.82 9.6 262 11 103150 79
2002-04-22 07:39:12 51°19.777 2°46.792 8.5 262 11 103140 79
2002-04-22 07:39:17 51°19.784 2°46.765 9.2 264 11 103140 79
2002-04-22 07:39:22 51°19.791 2°46.738 9.4 265 11 103150 79
2002-04-22 07:39:27 51°19.797 2°46.711 8.5 260 11 103150 79
2002-04-22 07:39:32 51°19.804 2°46.684 9.1 263 11 103140 79
2002-04-22 07:39:37 51°19.811 2°46.657 8.5 264 11 103140 79
2002-04-22 07:39:42 51°19.818 2°46.63 9.4 264 11 103140 79
2002-04-22 07:39:47 51°19.824 2°46.603 9.4 264 11 103140 79
2002-04-22 07:39:52 51°19.83 2°46.575 8.7 263 11 103140 79
2002-04-22 07:39:57 51°19.836 2°46.548 8.6 264 11 103140 79
2002-04-22 07:40:02 51°19.842 2°46.522 9 265 11 103140 79
2002-04-22 07:40:08 51°19.851 2°46.49 8.9 264 11 103140 79
2002-04-22 07:40:12 51°19.855 2°46.469 8.9 266 11 103140 79
2002-04-22 07:40:17 51°19.862 2°46.442 8.7 264 11 103140 79
2002-04-22 07:40:22 51°19.868 2°46.416 8.6 267 11 103140 79
2002-04-22 07:40:28 51°19.876 2°46.384 8.4 266 11 103140 79
2002-04-22 07:40:32 51°19.881 2°46.363 8.8 265 11 103140 79
2002-04-22 07:40:38 51°19.89 2°46.331 8.6 266 11 103140 79
2002-04-22 07:40:42 51°19.894 2°46.31 8.8 266 11 103140 79
2002-04-22 07:40:47 51°19.901 2°46.284 8.5 263 11 103140 79
2002-04-22 07:40:52 51°19.907 2°46.258 9 267 11 103140 79
2002-04-22 07:40:57 51°19.913 2°46.231 8.2 266 11 103140 79
2002-04-22 07:41:02 51°19.92 2°46.205 8.4 266 11 103140 79
2002-04-22 07:41:07 51°19.926 2°46.179 8.7 267 11 103140 79
2002-04-22 07:41:12 51°19.932 2°46.152 8.4 267 11 103140 79
2002-04-22 07:41:17 51°19.939 2°46.127 8.4 267 11 103140 79
2002-04-22 07:41:22 51°19.945 2°46.101 8.9 267 11.1 103140 79
2002-04-22 07:41:27 51°19.951 2°46.074 8.8 266 11.1 103140 79
2002-04-22 07:41:32 51°19.958 2°46.048 8.4 266 11.1 103140 79
2002-04-22 07:41:38 51°19.965 2°46.017 8.2 267 11.1 103140 79
2002-04-22 07:41:42 51°19.971 2°45.996 7.9 266 11.1 103140 79
2002-04-22 07:41:47 51°19.977 2°45.97 8.4 266 11.1 103140 79
2002-04-22 07:41:52 51°19.983 2°45.944 8.6 264 11.1 103140 79
2002-04-22 07:41:57 51°19.99 2°45.918 8.6 266 11.1 103140 79
2002-04-22 07:42:02 51°19.996 2°45.892 8.3 264 11.1 103140 79
2002-04-22 07:42:07 51°20.003 2°45.866 8.1 264 11.1 103140 79
2002-04-22 07:42:12 51°20.009 2°45.84 8 265 11.1 103130 79
2002-04-22 07:42:17 51°20.016 2°45.814 8.4 264 11.1 103130 79
2002-04-22 07:42:22 51°20.022 2°45.788 8.5 266 11.1 103140 79
2002-04-22 07:42:27 51°20.028 2°45.762 8.3 263 11.1 103140 79
2002-04-22 07:42:32 51°20.036 2°45.736 8.4 264 11.1 103130 79
2002-04-22 07:42:37 51°20.042 2°45.709 8.2 263 11.1 103130 79
2002-04-22 07:42:42 51°20.049 2°45.683 8.2 265 11.1 103140 79
2002-04-22 07:42:48 51°20.056 2°45.652 8.2 264 11.1 103140 79
2002-04-22 07:42:52 51°20.062 2°45.632 8.6 265 11.1 103130 79
2002-04-22 07:42:57 51°20.068 2°45.605 8 263 11.1 103130 79
2002-04-22 07:43:02 51°20.075 2°45.579 8.4 264 11.1 103140 79
2002-04-22 07:43:07 51°20.082 2°45.552 8.2 262 11.1 103140 79
2002-04-22 07:43:12 51°20.088 2°45.526 8.8 262 11.1 103130 79
2002-04-22 07:43:17 51°20.095 2°45.5 8.3 262 11.1 103130 79
2002-04-22 07:43:22 51°20.102 2°45.473 8.1 261 11.1 103130 80
2002-04-22 07:43:28 51°20.11 2°45.441 8.5 262 11.1 103130 80
2002-04-22 07:43:32 51°20.115 2°45.42 8.6 261 11.1 103140 80
2002-04-22 07:43:37 51°20.122 2°45.393 8.9 261 11.1 103140 80
2002-04-22 07:43:42 51°20.129 2°45.367 8.8 262 11.1 103140 80
2002-04-22 07:43:48 51°20.137 2°45.335 8.7 261 11.1 103140 80
2002-04-22 07:43:52 51°20.142 2°45.314 8.5 263 11.1 103140 80
2002-04-22 07:43:58 51°20.15 2°45.282 8.7 258 11.1 103140 80
2002-04-22 07:44:02 51°20.155 2°45.26 9.1 265 11.1 103140 80
2002-04-22 07:44:07 51°20.161 2°45.233 8.6 257 11.1 103140 80
2002-04-22 07:44:12 51°20.167 2°45.207 9.1 265 11.1 103140 80
2002-04-22 07:44:17 51°20.172 2°45.179 9.1 257 11.1 103140 80
2002-04-22 07:44:22 51°20.178 2°45.152 9 263 11.1 103140 80
2002-04-22 07:44:28 51°20.183 2°45.12 8.9 257 11.1 103140 80
2002-04-22 07:44:32 51°20.187 2°45.098 9.6 260 11.1 103140 80
2002-04-22 07:44:37 51°20.191 2°45.07 9.7 258 11.1 103140 80
2002-04-22 07:44:42 51°20.196 2°45.043 9.5 261 11.1 103140 80
2002-04-22 07:44:48 51°20.202 2°45.01 9.3 260 11.1 103140 80
2002-04-22 07:44:52 51°20.206 2°44.988 9.2 260 11.1 103130 80
2002-04-22 07:44:58 51°20.211 2°44.955 9.5 262 11.1 103130 80
2002-04-22 07:45:02 51°20.216 2°44.934 9.5 262 11.1 103140 80
2002-04-22 07:45:07 51°20.22 2°44.906 9.2 262 11.1 103140 80
2002-04-22 07:45:12 51°20.226 2°44.879 9.1 262 11.1 103140 80
2002-04-22 07:45:17 51°20.23 2°44.852 9.3 262 11.1 103140 80
2002-04-22 07:45:22 51°20.235 2°44.824 9.2 262 11.1 103140 80
2002-04-22 07:45:27 51°20.24 2°44.797 9.5 262 11.1 103140 80
2002-04-22 07:45:32 51°20.245 2°44.77 9.5 263 11.1 103140 80
2002-04-22 07:45:37 51°20.25 2°44.742 9.3 258 11.1 103140 80
2002-04-22 07:45:42 51°20.255 2°44.715 9.6 264 11.1 103140 80
2002-04-22 07:45:48 51°20.261 2°44.682 8.9 260 11.1 103140 80
2002-04-22 07:45:52 51°20.265 2°44.66 9.6 264 11.1 103140 80
2002-04-22 07:45:57 51°20.27 2°44.633 9.5 262 11.1 103140 80
2002-04-22 07:46:02 51°20.275 2°44.606 10 266 11.1 103140 79
2002-04-22 07:46:07 51°20.28 2°44.579 9.7 263 11.1 103140 79
2002-04-22 07:46:12 51°20.284 2°44.551 9.5 261 11.1 103140 79
2002-04-22 07:46:17 51°20.289 2°44.524 9.5 261 11.1 103140 79
2002-04-22 07:46:22 51°20.293 2°44.497 8.8 260 11.1 103140 79
2002-04-22 07:46:27 51°20.298 2°44.47 9.8 263 11.1 103140 79
2002-04-22 07:46:32 51°20.302 2°44.442 9.3 261 11.1 103130 79
2002-04-22 07:46:37 51°20.307 2°44.415 9.3 262 11.1 103130 79
2002-04-22 07:46:42 51°20.311 2°44.388 9.8 261 11.1 103140 79
2002-04-22 07:46:48 51°20.317 2°44.355 9.7 265 11.1 103140 79
2002-04-22 07:46:52 51°20.32 2°44.333 9.5 262 11.1 103130 79
2002-04-22 07:46:58 51°20.326 2°44.301 10.4 264 11.1 103130 79
2002-04-22 07:47:02 51°20.33 2°44.279 10 260 11.1 103140 79
2002-04-22 07:47:07 51°20.334 2°44.252 9.3 263 11.1 103140 79
2002-04-22 07:47:12 51°20.339 2°44.224 9.2 263 11.1 103130 79
2002-04-22 07:47:17 51°20.344 2°44.197 9.8 263 11.1 103130 79
2002-04-22 07:47:22 51°20.349 2°44.17 9.8 262 11.1 103130 79
2002-04-22 07:47:27 51°20.353 2°44.142 9.4 262 11.1 103130 79
2002-04-22 07:47:32 51°20.358 2°44.115 9.8 265 11.1 103140 78
2002-04-22 07:47:37 51°20.362 2°44.088 9.8 263 11.1 103140 78
2002-04-22 07:47:42 51°20.367 2°44.061 9.7 263 11.1 103130 78
2002-04-22 07:47:47 51°20.372 2°44.033 9.3 263 11.1 103130 78
2002-04-22 07:47:52 51°20.376 2°44.006 9.8 264 11.1 103130 78
2002-04-22 07:47:57 51°20.381 2°43.978 10.5 264 11.1 103130 78
2002-04-22 07:48:02 51°20.386 2°43.951 10.1 264 11.1 103140 78
2002-04-22 07:48:08 51°20.391 2°43.918 10.2 263 11.1 103140 78
2002-04-22 07:48:12 51°20.395 2°43.896 9.3 264 11.1 103130 78
2002-04-22 07:48:17 51°20.399 2°43.868 9.7 263 11.1 103130 78
2002-04-22 07:48:22 51°20.403 2°43.841 10.3 268 11.1 103130 78
2002-04-22 07:48:28 51°20.409 2°43.808 9.8 262 11.1 103130 78
2002-04-22 07:48:32 51°20.412 2°43.786 9.7 267 11.1 103130 78
2002-04-22 07:48:37 51°20.417 2°43.758 9.5 262 11.1 103130 78
2002-04-22 07:48:42 51°20.421 2°43.731 10.2 263 11.1 103130 77
2002-04-22 07:48:47 51°20.426 2°43.703 10.1 266 11.1 103130 77
2002-04-22 07:48:52 51°20.43 2°43.676 10.5 267 11.1 103130 77
2002-04-22 07:48:57 51°20.434 2°43.648 9.5 260 11.1 103130 77
2002-04-22 07:49:02 51°20.439 2°43.621 10.9 267 11.1 103130 77
2002-04-22 07:49:08 51°20.443 2°43.587 10.2 264 11.1 103130 77
2002-04-22 07:49:12 51°20.446 2°43.565 10 265 11.1 103130 77
2002-04-22 07:49:17 51°20.448 2°43.538 10.1 260 11.1 103130 77
2002-04-22 07:49:22 51°20.451 2°43.51 10.2 264 11.1 103130 77
2002-04-22 07:49:27 51°20.453 2°43.482 10.7 262 11.1 103130 77
2002-04-22 07:49:32 51°20.456 2°43.455 10.2 264 11.1 103130 77
2002-04-22 07:49:37 51°20.457 2°43.427 9.9 263 11.1 103130 77
2002-04-22 07:49:43 51°20.46 2°43.394 10.6 263 11.1 103130 77
2002-04-22 07:50:02 51°20.469 2°43.292 10.6 263 11.1 103130 77
2002-04-22 07:50:07 51°20.472 2°43.269 10.6 263 11.1 103130 77
2002-04-22 07:50:11 51°20.474 2°43.251 10.6 263 11.1 103130 77
2002-04-22 07:50:15 51°20.475 2°43.235 10.6 263 -999 -999 -999
2002-04-22 07:50:19 51°20.477 2°43.219 -999 -999 -999 -999 -999
2002-04-22 07:50:23 51°20.479 2°43.204 -999 -999 -999 -999 -999
2002-04-22 07:50:28 51°20.481 2°43.187 -999 -999 -999 -999 -999
2002-04-22 07:50:52 51°20.492 2°43.119 6.4 286 11.1 -999 76
2002-04-22 07:50:57 51°20.495 2°43.107 6 287 11.1 -999 76
2002-04-22 07:51:02 51°20.498 2°43.096 6 291 11.1 -999 77
2002-04-22 07:51:07 51°20.5 2°43.086 5.8 292 11.1 -999 77
2002-04-22 07:51:12 51°20.503 2°43.077 6 297 11.2 103140 77
2002-04-22 07:51:17 51°20.506 2°43.068 5.7 296 11.2 103140 77
2002-04-22 07:51:22 51°20.509 2°43.06 6.3 301 11.2 103140 77
2002-04-22 07:51:27 51°20.512 2°43.052 5.8 299 11.2 103140 77
2002-04-22 07:51:32 51°20.516 2°43.045 4.5 303 11.2 103140 77
2002-04-22 07:51:37 51°20.519 2°43.038 4.4 310 11.2 103140 77
2002-04-22 07:51:42 51°20.523 2°43.032 3.7 306 11.2 103140 77
2002-04-22 07:51:47 51°20.526 2°43.025 4.7 314 11.2 103140 77
2002-04-22 07:51:52 51°20.53 2°43.018 4.2 296 11.2 103140 77
2002-04-22 07:51:57 51°20.535 2°43.011 4.5 299 11.2 103140 77
2002-04-22 07:52:02 51°20.54 2°43.002 5.2 299 11.2 103140 77
2002-04-22 07:52:08 51°20.547 2°42.99 5.4 298 11.2 103140 77
2002-04-22 07:52:12 51°20.552 2°42.982 5.4 297 11.2 103140 77
2002-04-22 07:52:17 51°20.558 2°42.971 5.6 292 11.2 103140 77
2002-04-22 07:52:22 51°20.565 2°42.959 5.3 294 11.2 103140 77
2002-04-22 07:52:27 51°20.571 2°42.947 5.3 291 11.2 103140 77
2002-04-22 07:52:32 51°20.579 2°42.934 5.3 291 11.2 103140 77
2002-04-22 07:52:37 51°20.586 2°42.921 5.6 292 11.2 103140 77
2002-04-22 07:52:42 51°20.593 2°42.908 5.5 287 11.2 103140 77
2002-04-22 07:52:48 51°20.602 2°42.892 6.1 291 11.2 103140 77
2002-04-22 07:52:52 51°20.608 2°42.881 5.5 287 11.2 103140 77
2002-04-22 07:52:58 51°20.617 2°42.863 6.4 281 11.2 103140 77
2002-04-22 07:53:02 51°20.623 2°42.85 6.5 279 11.2 103140 77
2002-04-22 07:53:07 51°20.631 2°42.833 6.5 278 11.2 103140 77
2002-04-22 07:53:12 51°20.64 2°42.814 6.9 279 11.3 103140 77
2002-04-22 07:53:17 51°20.649 2°42.794 6.6 275 11.3 103140 77
2002-04-22 07:53:22 51°20.659 2°42.775 6.9 273 11.3 103130 77
2002-04-22 07:53:28 51°20.67 2°42.75 7.3 273 11.3 103130 77
2002-04-22 07:53:32 51°20.678 2°42.733 7.8 271 11.3 103130 77
2002-04-22 07:53:37 51°20.685 2°42.71 7.7 267 11.3 103130 77
2002-04-22 07:53:42 51°20.692 2°42.687 8.8 268 11.3 103130 77
2002-04-22 07:53:48 51°20.699 2°42.657 8.3 270 11.3 103130 77
2002-04-22 07:53:52 51°20.704 2°42.638 8.3 270 11.3 103130 77
2002-04-22 07:53:57 51°20.71 2°42.614 8.1 268 11.3 103130 77
2002-04-22 07:54:02 51°20.716 2°42.589 8 267 11.3 103130 77
2002-04-22 07:54:07 51°20.723 2°42.565 8.2 267 11.3 103130 77
2002-04-22 07:54:12 51°20.728 2°42.54 8.8 268 11.3 103130 77
2002-04-22 07:54:17 51°20.734 2°42.515 8.7 269 11.3 103130 77
2002-04-22 07:54:22 51°20.739 2°42.49 8.8 270 11.3 103130 77
2002-04-22 07:54:28 51°20.746 2°42.46 8.4 268 11.3 103130 77
2002-04-22 07:54:32 51°20.751 2°42.441 8.7 266 11.3 103130 77
2002-04-22 07:54:37 51°20.757 2°42.416 8.4 267 11.3 103130 77
2002-04-22 07:54:42 51°20.763 2°42.391 8.9 267 11.3 103130 77
2002-04-22 07:54:48 51°20.769 2°42.361 8.4 265 11.3 103130 77
2002-04-22 07:54:52 51°20.772 2°42.341 9.1 266 11.3 103130 77
2002-04-22 07:54:58 51°20.776 2°42.311 8.6 263 11.3 103130 77
2002-04-22 07:55:02 51°20.778 2°42.29 9.3 263 11.3 103130 77
2002-04-22 07:55:08 51°20.78 2°42.258 9.3 260 11.3 103130 77
2002-04-22 07:55:12 51°20.781 2°42.237 10 264 11.3 103130 77
2002-04-22 07:55:17 51°20.781 2°42.21 10.2 259 11.3 103130 77
2002-04-22 07:55:22 51°20.781 2°42.184 9.7 262 11.3 103130 77
2002-04-22 07:55:27 51°20.78 2°42.157 9.7 258 11.3 103130 77
2002-04-22 07:55:32 51°20.78 2°42.13 10.3 259 11.3 103120 77
2002-04-22 07:55:37 51°20.779 2°42.103 9.4 261 11.3 103120 77
2002-04-22 07:55:42 51°20.779 2°42.076 9.9 258 11.3 103120 77
2002-04-22 07:55:48 51°20.779 2°42.043 9.6 263 11.3 103120 77
2002-04-22 07:55:52 51°20.779 2°42.022 9.1 260 11.3 103120 78
2002-04-22 07:55:57 51°20.78 2°41.995 9.6 261 11.3 103120 78
2002-04-22 07:56:02 51°20.78 2°41.967 9.9 259 11.3 103120 78
2002-04-22 07:56:07 51°20.781 2°41.94 9.3 263 11.3 103120 78
2002-04-22 07:56:12 51°20.782 2°41.912 10.4 262 11.3 103120 78
2002-04-22 07:56:17 51°20.783 2°41.885 9.1 258 11.3 103120 78
2002-04-22 07:56:22 51°20.784 2°41.857 10.2 261 11.3 103120 78
2002-04-22 07:56:27 51°20.786 2°41.83 9.3 259 11.3 103120 78
2002-04-22 07:56:32 51°20.787 2°41.802 9.8 260 11.3 103120 78
2002-04-22 07:56:37 51°20.788 2°41.775 9.9 260 11.3 103120 78
2002-04-22 07:56:42 51°20.79 2°41.747 4.4 259 11.3 103120 78
2002-04-22 07:56:47 51°20.791 2°41.72 9.6 259 11.3 103120 78
2002-04-22 07:56:52 51°20.792 2°41.692 9.4 259 11.3 103120 78
2002-04-22 07:56:58 51°20.794 2°41.659 9.5 260 11.3 103120 78
2002-04-22 07:57:02 51°20.794 2°41.637 9.6 260 11.3 103120 78
2002-04-22 07:57:07 51°20.796 2°41.609 9.7 262 11.3 103120 78
2002-04-22 07:57:12 51°20.797 2°41.581 9.6 259 11.3 103120 78
2002-04-22 07:57:17 51°20.799 2°41.554 10.3 261 11.3 103120 78
2002-04-22 07:57:22 51°20.8 2°41.526 9.7 259 11.3 103120 78
2002-04-22 07:57:28 51°20.802 2°41.493 9.5 262 11.3 103120 78
2002-04-22 07:57:32 51°20.803 2°41.471 10 260 11.3 103120 78
2002-04-22 07:57:37 51°20.804 2°41.443 10.2 263 11.3 103120 78
2002-04-22 07:57:42 51°20.806 2°41.416 10.2 260 11.3 103130 78
2002-04-22 07:57:47 51°20.807 2°41.388 9.7 260 11.3 103130 78
2002-04-22 07:57:52 51°20.809 2°41.36 9.6 259 11.3 103120 78
2002-04-22 07:57:57 51°20.81 2°41.332 9.7 260 11.3 103120 78
2002-04-22 07:58:02 51°20.812 2°41.304 9.3 261 11.3 103120 78
2002-04-22 07:58:07 51°20.813 2°41.276 10 261 11.3 103120 78
2002-04-22 07:58:12 51°20.815 2°41.248 9.5 261 11.3 103120 78
2002-04-22 07:58:17 51°20.816 2°41.22 9.8 260 11.3 103120 78
2002-04-22 07:58:22 51°20.818 2°41.192 10.1 259 11.2 103120 78
2002-04-22 07:58:27 51°20.819 2°41.163 9.5 259 11.2 103120 78
2002-04-22 07:58:32 51°20.821 2°41.135 10.1 260 11.2 103120 78
2002-04-22 07:58:37 51°20.822 2°41.107 10.2 261 11.2 103120 78
2002-04-22 07:58:42 51°20.824 2°41.079 10.1 259 11.2 103120 78
2002-04-22 07:58:48 51°20.826 2°41.045 9.7 260 11.2 103120 78
2002-04-22 07:58:52 51°20.827 2°41.022 9.9 260 11.2 103120 79
2002-04-22 07:58:58 51°20.829 2°40.988 9.6 260 11.2 103120 79
2002-04-22 07:59:02 51°20.83 2°40.966 9.8 260 11.2 103120 79
2002-04-22 07:59:07 51°20.832 2°40.938 10.3 260 11.2 103120 79
2002-04-22 07:59:12 51°20.833 2°40.909 10 260 11.2 103120 79
2002-04-22 07:59:18 51°20.835 2°40.875 9.9 261 11.2 103120 79
2002-04-22 07:59:22 51°20.836 2°40.853 9.9 259 11.2 103120 79
2002-04-22 07:59:27 51°20.838 2°40.824 9.8 259 11.2 103120 79
2002-04-22 07:59:32 51°20.84 2°40.796 9.9 261 11.2 103120 79
2002-04-22 07:59:37 51°20.841 2°40.768 10.3 260 11.2 103120 79
2002-04-22 07:59:42 51°20.842 2°40.74 10.6 260 11.2 103120 79
2002-04-22 07:59:47 51°20.844 2°40.712 10.2 261 11.2 103120 79
2002-04-22 07:59:53 51°20.846 2°40.678 9.8 262 11.2 103120 79
2002-04-22 07:59:57 51°20.847 2°40.655 9.9 258 11.2 103120 79
2002-04-22 08:00:02 51°20.848 2°40.627 10.2 261 11.2 103120 79
2002-04-22 08:00:08 51°20.85 2°40.593 9.6 260 11.2 103120 79
2002-04-22 08:00:12 51°20.851 2°40.57 10.1 260 11.2 103120 79
2002-04-22 08:00:18 51°20.853 2°40.536 10 260 11.2 103120 79
2002-04-22 08:00:22 51°20.854 2°40.514 9.6 260 11.2 103120 79
2002-04-22 08:00:28 51°20.856 2°40.48 9.7 259 11.2 103120 79
2002-04-22 08:00:32 51°20.858 2°40.458 10.4 262 11.2 103120 79
2002-04-22 08:00:37 51°20.859 2°40.43 10.2 262 11.2 103120 79
2002-04-22 08:00:42 51°20.86 2°40.402 9.6 261 11.2 103120 79
2002-04-22 08:00:48 51°20.862 2°40.368 10.5 263 11.2 103120 79
2002-04-22 08:00:52 51°20.863 2°40.346 10 261 11.2 103110 79
2002-04-22 08:00:58 51°20.865 2°40.312 10.1 264 11.2 103110 79
2002-04-22 08:01:02 51°20.867 2°40.29 9.9 264 11.2 103110 79
2002-04-22 08:01:07 51°20.868 2°40.262 10.6 264 11.2 103110 79
2002-04-22 08:01:12 51°20.87 2°40.234 10 262 11.2 103110 79
2002-04-22 08:01:17 51°20.871 2°40.206 10.4 262 11.2 103110 79
2002-04-22 08:01:22 51°20.873 2°40.178 10.6 263 11.2 103110 79
2002-04-22 08:01:27 51°20.874 2°40.15 10.5 264 11.2 103110 79
2002-04-22 08:01:32 51°20.876 2°40.122 10 263 11.2 103110 78
2002-04-22 08:01:38 51°20.878 2°40.088 10 263 11.2 103110 78
2002-04-22 08:01:42 51°20.879 2°40.066 10.5 266 11.2 103110 78
2002-04-22 08:01:47 51°20.88 2°40.038 9.8 262 11.2 103110 78
2002-04-22 08:01:52 51°20.882 2°40.01 10.4 266 11.1 103110 78
2002-04-22 08:01:58 51°20.884 2°39.977 10 263 11.1 103110 78
2002-04-22 08:02:02 51°20.885 2°39.954 10.7 262 11.1 103110 78
2002-04-22 08:02:08 51°20.887 2°39.921 10.4 263 11.1 103110 78
2002-04-22 08:02:12 51°20.888 2°39.898 10.3 263 11.1 103110 78
2002-04-22 08:02:17 51°20.89 2°39.87 10.3 262 11.1 103110 78
2002-04-22 08:02:22 51°20.891 2°39.842 10.5 264 11.2 103110 78
2002-04-22 08:02:27 51°20.893 2°39.814 10 264 11.2 103110 78
2002-04-22 08:02:32 51°20.894 2°39.786 10.1 265 11.2 103110 78
2002-04-22 08:02:37 51°20.896 2°39.758 10.6 266 11.2 103110 78
2002-04-22 08:02:43 51°20.898 2°39.724 10.4 264 11.2 103110 78
2002-04-22 08:02:48 51°20.899 2°39.696 10.4 265 11.2 103110 78
2002-04-22 08:02:52 51°20.901 2°39.674 9.9 264 11.2 103110 78
2002-04-22 08:02:57 51°20.902 2°39.645 10.1 264 11.2 103110 78
2002-04-22 08:03:02 51°20.904 2°39.618 10.4 263 11.1 103110 78
2002-04-22 08:03:08 51°20.906 2°39.584 10.9 265 11.1 103110 78
2002-04-22 08:03:12 51°20.907 2°39.562 9.6 265 11.2 103100 78
2002-04-22 08:03:17 51°20.909 2°39.534 10.3 262 11.2 103100 78
2002-04-22 08:03:22 51°20.91 2°39.506 9.9 264 11.1 103110 78
2002-04-22 08:03:27 51°20.912 2°39.479 10 264 11.1 103110 78
2002-04-22 08:03:32 51°20.913 2°39.451 10.1 263 11.2 103110 78
2002-04-22 08:03:37 51°20.915 2°39.423 10.3 265 11.2 103110 78
2002-04-22 08:03:42 51°20.916 2°39.395 10.1 262 11.2 103110 78
2002-04-22 08:03:47 51°20.918 2°39.367 10.1 264 11.2 103110 78
2002-04-22 08:03:52 51°20.92 2°39.339 9.9 262 11.2 103100 78
2002-04-22 08:03:57 51°20.921 2°39.311 10 264 11.2 103100 78
2002-04-22 08:04:02 51°20.923 2°39.284 9.7 262 11.1 103110 78
2002-04-22 08:04:07 51°20.925 2°39.256 10.1 264 11.1 103110 78
2002-04-22 08:04:12 51°20.926 2°39.228 10.3 264 11.2 103110 78
2002-04-22 08:04:17 51°20.928 2°39.2 9.8 261 11.2 103110 78
2002-04-22 08:04:22 51°20.93 2°39.173 10.4 261 11.1 103110 78
2002-04-22 08:04:28 51°20.931 2°39.14 9.6 262 11.1 103110 78
2002-04-22 08:04:32 51°20.933 2°39.118 10.2 262 11.2 103110 78
2002-04-22 08:04:37 51°20.935 2°39.09 10.2 263 11.2 103110 78
2002-04-22 08:04:43 51°20.937 2°39.057 10.5 263 11.2 103120 78
2002-04-22 08:04:47 51°20.938 2°39.035 9.9 262 11.2 103120 78
2002-04-22 08:04:52 51°20.94 2°39.007 10.3 262 11.2 103110 78
2002-04-22 08:04:57 51°20.941 2°38.979 10.4 263 11.2 103110 78
2002-04-22 08:05:02 51°20.943 2°38.952 10.5 261 11.2 103120 78
2002-04-22 08:05:08 51°20.945 2°38.919 10 263 11.2 103120 78
2002-04-22 08:05:12 51°20.947 2°38.896 10.6 262 11.2 103120 78
2002-04-22 08:05:18 51°20.948 2°38.863 9.7 260 11.2 103120 78
2002-04-22 08:05:22 51°20.95 2°38.841 10.4 262 11.2 103110 78
2002-04-22 08:05:27 51°20.952 2°38.813 10.4 261 11.2 103110 78
2002-04-22 08:05:32 51°20.953 2°38.785 10.6 263 11.2 103110 78
2002-04-22 08:05:38 51°20.955 2°38.751 9.7 258 11.2 103110 78
2002-04-22 08:05:41 51°20.957 2°38.734 10.4 263 11.2 103120 78
2002-04-22 08:05:47 51°20.958 2°38.701 10 260 11.2 103120 78
2002-04-22 08:05:52 51°20.96 2°38.673 9.9 261 11.2 103120 78
2002-04-22 08:05:57 51°20.962 2°38.645 10.7 262 11.2 103120 78
2002-04-22 08:06:03 51°20.964 2°38.611 9.7 259 11.2 103120 78
2002-04-22 08:06:08 51°20.966 2°38.583 10.1 261 11.2 103120 78
2002-04-22 08:06:12 51°20.967 2°38.561 9.8 260 11.2 103120 78
2002-04-22 08:06:18 51°20.969 2°38.527 9.9 260 11.2 103120 78
2002-04-22 08:06:22 51°20.97 2°38.505 9.8 259 11.2 103110 78
2002-04-22 08:06:27 51°20.972 2°38.477 10 261 11.2 103110 78
2002-04-22 08:06:32 51°20.973 2°38.449 10 259 11.2 103120 78
2002-04-22 08:06:38 51°20.976 2°38.415 10.7 262 11.2 103120 78
2002-04-22 08:06:42 51°20.977 2°38.393 9.9 260 11.2 103120 79
2002-04-22 08:06:48 51°20.979 2°38.359 10.5 260 11.2 103120 79
2002-04-22 08:06:52 51°20.98 2°38.337 9.7 261 11.2 103120 79
2002-04-22 08:06:57 51°20.982 2°38.309 10.4 261 11.2 103120 79
2002-04-22 08:07:02 51°20.984 2°38.281 10 258 11.2 103120 79
2002-04-22 08:07:08 51°20.985 2°38.247 10.2 261 11.2 103120 79
2002-04-22 08:07:12 51°20.987 2°38.225 10.1 262 11.2 103120 79
2002-04-22 08:07:17 51°20.989 2°38.197 10 260 11.2 103120 79
2002-04-22 08:07:22 51°20.991 2°38.169 10.2 260 11.2 103120 79
2002-04-22 08:07:27 51°20.992 2°38.141 9.7 261 11.2 103120 79
2002-04-22 08:07:32 51°20.994 2°38.113 9.6 261 11.2 103120 79
2002-04-22 08:07:37 51°20.996 2°38.085 9.7 259 11.2 103120 79
2002-04-22 08:07:42 51°20.998 2°38.057 10.1 261 11.2 103120 79
2002-04-22 08:07:47 51°20.999 2°38.029 9.5 262 11.2 103120 79
2002-04-22 08:07:52 51°21.001 2°38.001 9.9 259 11.3 103120 79
2002-04-22 08:07:57 51°21.003 2°37.973 10.2 260 11.3 103120 79
2002-04-22 08:08:02 51°21.004 2°37.945 10.1 258 11.3 103120 79
2002-04-22 08:08:07 51°21.006 2°37.917 9.8 259 11.3 103120 79
2002-04-22 08:08:12 51°21.008 2°37.89 9.8 261 11.3 103120 79
2002-04-22 08:08:17 51°21.01 2°37.862 10.2 259 11.3 103120 79
2002-04-22 08:08:22 51°21.012 2°37.834 10.2 260 11.3 103120 79
2002-04-22 08:08:28 51°21.014 2°37.801 9.8 261 11.3 103120 79
2002-04-22 08:08:32 51°21.016 2°37.778 9.6 260 11.3 103120 79
2002-04-22 08:08:38 51°21.018 2°37.745 10.1 259 11.3 103120 79
2002-04-22 08:08:43 51°21.02 2°37.717 10.2 257 11.3 103130 79
2002-04-22 08:08:47 51°21.021 2°37.694 10 258 11.3 103130 79
2002-04-22 08:08:52 51°21.023 2°37.666 10.2 259 11.3 103120 79
2002-04-22 08:08:57 51°21.025 2°37.638 10 259 11.3 103120 79
2002-04-22 08:09:02 51°21.027 2°37.61 10.3 259 11.3 103120 79
2002-04-22 08:09:08 51°21.03 2°37.576 10 258 11.3 103120 79
2002-04-22 08:09:12 51°21.031 2°37.553 10.4 259 11.3 103130 79
2002-04-22 08:09:17 51°21.033 2°37.525 9.9 260 11.3 103130 79
2002-04-22 08:09:22 51°21.035 2°37.497 10.5 261 11.3 103120 79
2002-04-22 08:09:27 51°21.037 2°37.469 10.5 259 11.3 103120 79
2002-04-22 08:09:32 51°21.039 2°37.44 10 261 11.3 103120 79
2002-04-22 08:09:38 51°21.042 2°37.407 9.8 257 11.3 103120 79
2002-04-22 08:09:42 51°21.043 2°37.384 9.7 258 11.3 103120 79
2002-04-22 08:09:47 51°21.045 2°37.356 9.9 257 11.3 103120 79
2002-04-22 08:09:52 51°21.047 2°37.328 10.5 257 11.3 103120 79
2002-04-22 08:09:57 51°21.049 2°37.299 10 259 11.3 103120 79
2002-04-22 08:10:02 51°21.051 2°37.271 10 260 11.3 103120 79
2002-04-22 08:10:07 51°21.053 2°37.243 10.4 257 11.3 103120 79
2002-04-22 08:10:12 51°21.055 2°37.214 10.6 260 11.3 103120 79
2002-04-22 08:10:17 51°21.057 2°37.186 10.2 257 11.3 103120 79
2002-04-22 08:10:22 51°21.058 2°37.158 10.2 259 11.3 103120 79
2002-04-22 08:10:27 51°21.06 2°37.13 10.3 258 11.3 103120 79
2002-04-22 08:10:32 51°21.062 2°37.101 10 260 11.3 103130 79
2002-04-22 08:10:38 51°21.065 2°37.067 9.8 260 11.3 103130 79
2002-04-22 08:10:42 51°21.067 2°37.044 9.8 259 11.3 103120 79
2002-04-22 08:10:47 51°21.069 2°37.016 9.8 257 11.3 103120 79
2002-04-22 08:10:53 51°21.071 2°36.981 10.2 259 11.3 103130 79
2002-04-22 08:10:57 51°21.073 2°36.959 10 256 11.3 103130 79
2002-04-22 08:11:02 51°21.075 2°36.931 10.3 260 11.3 103120 79
2002-04-22 08:11:07 51°21.077 2°36.902 10.1 259 11.3 103120 79
2002-04-22 08:11:12 51°21.079 2°36.873 10.2 258 11.3 103130 79
2002-04-22 08:11:18 51°21.081 2°36.84 10.3 259 11.3 103130 79
2002-04-22 08:11:22 51°21.083 2°36.817 10.3 257 11.3 103120 79
2002-04-22 08:11:28 51°21.085 2°36.783 10.4 262 11.3 103120 79
2002-04-22 08:11:32 51°21.085 2°36.761 10.2 260 11.3 103120 79
2002-04-22 08:11:37 51°21.086 2°36.734 10.6 258 11.3 103120 79
2002-04-22 08:11:42 51°21.087 2°36.706 10.1 262 11.3 103120 78
2002-04-22 08:11:48 51°21.089 2°36.673 9.8 259 11.3 103120 78
2002-04-22 08:11:52 51°21.09 2°36.651 10.5 263 11.3 103120 78
2002-04-22 08:11:57 51°21.092 2°36.624 10.5 259 11.3 103120 78
2002-04-22 08:12:02 51°21.093 2°36.596 10.2 260 11.3 103120 78
2002-04-22 08:12:08 51°21.096 2°36.563 10 260 11.3 103120 78
2002-04-22 08:12:12 51°21.097 2°36.542 9.8 261 11.3 103120 78
2002-04-22 08:12:18 51°21.099 2°36.509 10.5 262 11.3 103120 78
2002-04-22 08:12:22 51°21.099 2°36.488 10 262 11.3 103120 78
2002-04-22 08:12:28 51°21.102 2°36.455 10.1 264 11.3 103120 78
2002-04-22 08:12:32 51°21.102 2°36.433 10 258 11.3 103120 78
2002-04-22 08:12:38 51°21.105 2°36.4 9.2 260 11.3 103120 78
2002-04-22 08:12:42 51°21.106 2°36.379 10.9 260 11.3 103120 78
2002-04-22 08:12:47 51°21.107 2°36.351 9.7 261 11.3 103120 78
2002-04-22 08:12:52 51°21.109 2°36.324 9.7 259 11.3 103120 78
2002-04-22 08:12:57 51°21.111 2°36.296 9.8 260 11.3 103120 78
2002-04-22 08:13:02 51°21.112 2°36.269 11.2 263 11.3 103120 78
2002-04-22 08:13:07 51°21.114 2°36.241 10.3 262 11.3 103120 78
2002-04-22 08:13:13 51°21.116 2°36.209 10.1 258 11.3 103120 77
2002-04-22 08:13:17 51°21.117 2°36.187 10.3 262 11.3 103120 77
2002-04-22 08:13:22 51°21.119 2°36.16 9.9 259 11.3 103120 77
2002-04-22 08:13:27 51°21.121 2°36.133 10.5 262 11.3 103120 77
2002-04-22 08:13:32 51°21.122 2°36.105 10.5 260 11.3 103130 78
2002-04-22 08:13:37 51°21.124 2°36.078 10.4 263 11.3 103130 78
2002-04-22 08:13:42 51°21.125 2°36.051 9.9 259 11.3 103120 78
2002-04-22 08:13:48 51°21.127 2°36.018 9.9 261 11.3 103120 78
2002-04-22 08:13:52 51°21.128 2°35.996 9.7 258 11.3 103130 78
2002-04-22 08:13:57 51°21.13 2°35.969 10.2 258 11.3 103130 78
2002-04-22 08:14:02 51°21.131 2°35.942 9.8 259 11.3 103130 78
2002-04-22 08:14:07 51°21.133 2°35.915 10.4 262 11.3 103130 78
2002-04-22 08:14:12 51°21.135 2°35.887 9.4 260 11.3 103130 78
2002-04-22 08:14:18 51°21.137 2°35.854 10.2 259 11.3 103130 78
2002-04-22 08:14:22 51°21.138 2°35.833 9.8 258 11.3 103130 78
2002-04-22 08:14:27 51°21.14 2°35.805 9.8 260 11.3 103130 78
2002-04-22 08:14:32 51°21.142 2°35.778 9.5 259 11.3 103130 78
2002-04-22 08:14:37 51°21.144 2°35.751 9.8 261 11.3 103130 78
2002-04-22 08:14:42 51°21.146 2°35.724 9.6 260 11.4 103120 78
2002-04-22 08:14:47 51°21.147 2°35.696 9.9 260 11.4 103120 78
2002-04-22 08:14:52 51°21.149 2°35.669 10.3 260 11.4 103130 78
2002-04-22 08:14:57 51°21.151 2°35.642 9.4 260 11.4 103130 78
2002-04-22 08:15:02 51°21.153 2°35.615 10.1 260 11.4 103130 78
2002-04-22 08:15:07 51°21.154 2°35.588 9.9 258 11.4 103130 78
2002-04-22 08:15:12 51°21.156 2°35.561 10.3 259 11.4 103130 78
2002-04-22 08:15:17 51°21.158 2°35.533 9.6 260 11.4 103130 78
2002-04-22 08:15:22 51°21.16 2°35.506 10.3 257 11.4 103130 78
2002-04-22 08:15:28 51°21.162 2°35.474 9.7 260 11.4 103130 78
2002-04-22 08:15:32 51°21.164 2°35.452 9.9 260 11.4 103130 78
2002-04-22 08:15:37 51°21.166 2°35.425 10.3 259 11.4 103130 78
2002-04-22 08:15:42 51°21.168 2°35.397 9.9 257 11.4 103130 78
2002-04-22 08:15:47 51°21.17 2°35.37 9.9 259 11.4 103130 78
2002-04-22 08:15:52 51°21.172 2°35.343 10.1 257 11.4 103130 78
2002-04-22 08:15:58 51°21.174 2°35.31 10.3 259 11.4 103130 78
2002-04-22 08:16:02 51°21.176 2°35.288 10.1 257 11.4 103130 78
2002-04-22 08:16:08 51°21.178 2°35.255 9.8 261 11.4 103130 78
2002-04-22 08:16:12 51°21.18 2°35.233 10.1 259 11.4 103130 78
2002-04-22 08:16:17 51°21.182 2°35.206 9.7 259 11.4 103130 78
2002-04-22 08:16:22 51°21.184 2°35.178 9.9 258 11.4 103130 78
2002-04-22 08:16:27 51°21.185 2°35.151 10.1 258 11.4 103130 78
2002-04-22 08:16:32 51°21.188 2°35.123 9.7 260 11.4 103130 78
2002-04-22 08:16:37 51°21.189 2°35.096 10 257 11.4 103130 78
2002-04-22 08:16:42 51°21.192 2°35.068 10.1 257 11.4 103130 78
2002-04-22 08:16:48 51°21.194 2°35.034 10.3 256 11.4 103130 78
2002-04-22 08:16:52 51°21.196 2°35.012 9.5 256 11.4 103140 78
2002-04-22 08:16:57 51°21.198 2°34.984 9.7 257 11.4 103140 78
2002-04-22 08:17:02 51°21.2 2°34.956 9.8 256 11.4 103130 78
2002-04-22 08:17:08 51°21.202 2°34.922 10.1 258 11.4 103130 78
2002-04-22 08:17:12 51°21.204 2°34.9 10.4 257 11.4 103130 78
2002-04-22 08:17:17 51°21.206 2°34.872 10.3 257 11.4 103130 78
2002-04-22 08:17:22 51°21.208 2°34.844 10.1 256 11.4 103130 78
2002-04-22 08:17:27 51°21.21 2°34.816 10.4 256 11.4 103130 78
2002-04-22 08:17:32 51°21.212 2°34.788 10 257 11.4 103130 78
2002-04-22 08:17:37 51°21.214 2°34.76 9.8 255 11.4 103130 78
2002-04-22 08:17:42 51°21.216 2°34.732 10.6 257 11.4 103130 78
2002-04-22 08:17:47 51°21.218 2°34.704 10.3 257 11.4 103130 78
2002-04-22 08:17:52 51°21.221 2°34.676 10.8 257 11.4 103130 78
2002-04-22 08:17:57 51°21.222 2°34.649 10.3 255 11.4 103130 78
2002-04-22 08:18:02 51°21.225 2°34.621 10 257 11.4 103140 78
2002-04-22 08:18:08 51°21.227 2°34.587 10.3 256 11.4 103140 78
2002-04-22 08:18:12 51°21.229 2°34.565 10.4 256 11.4 103130 78
2002-04-22 08:18:17 51°21.231 2°34.537 9.7 256 11.4 103130 78
2002-04-22 08:18:22 51°21.233 2°34.509 10.2 256 11.4 103140 78
2002-04-22 08:18:28 51°21.236 2°34.476 9.5 256 11.4 103140 78
2002-04-22 08:18:32 51°21.237 2°34.454 10 257 11.4 103130 78
2002-04-22 08:18:37 51°21.24 2°34.426 10.7 256 11.4 103130 78
2002-04-22 08:18:42 51°21.242 2°34.398 10.5 256 11.4 103130 78
2002-04-22 08:18:47 51°21.244 2°34.37 10.6 257 11.4 103130 78
2002-04-22 08:18:53 51°21.246 2°34.337 10.3 257 11.4 103130 78
2002-04-22 08:18:58 51°21.249 2°34.309 10.5 258 11.4 103130 78
2002-04-22 08:19:02 51°21.25 2°34.287 10.2 256 11.4 103130 78
2002-04-22 08:19:07 51°21.253 2°34.259 10.5 258 11.4 103130 78
2002-04-22 08:19:12 51°21.255 2°34.231 10.6 255 11.4 103130 78
2002-04-22 08:19:17 51°21.257 2°34.203 10.4 257 11.4 103130 78
2002-04-22 08:19:22 51°21.259 2°34.175 10.7 256 11.4 103140 78
2002-04-22 08:19:28 51°21.262 2°34.141 10.6 260 11.4 103140 78
2002-04-22 08:19:32 51°21.264 2°34.119 10.9 256 11.4 103130 78
2002-04-22 08:19:37 51°21.266 2°34.091 9.8 257 11.4 103130 78
2002-04-22 08:19:42 51°21.268 2°34.063 10.3 257 11.4 103140 78
2002-04-22 08:19:47 51°21.27 2°34.035 10.5 258 11.4 103140 78
2002-04-22 08:19:52 51°21.273 2°34.007 10.9 257 11.4 103130 78
2002-04-22 08:19:57 51°21.275 2°33.979 10.5 257 11.4 103130 78
2002-04-22 08:20:02 51°21.277 2°33.95 10.4 258 11.4 103140 78
2002-04-22 08:20:08 51°21.28 2°33.917 10.4 255 11.4 103140 78
2002-04-22 08:20:12 51°21.282 2°33.894 9.9 256 11.4 103130 78
2002-04-22 08:20:18 51°21.285 2°33.86 10.2 256 11.4 103130 78
2002-04-22 08:20:22 51°21.286 2°33.838 10.3 257 11.3 103130 78
2002-04-22 08:20:28 51°21.289 2°33.804 10.1 257 11.3 103130 78
2002-04-22 08:20:32 51°21.291 2°33.782 10.4 257 11.4 103130 78
2002-04-22 08:20:37 51°21.293 2°33.754 10.9 256 11.4 103130 78
2002-04-22 08:20:42 51°21.296 2°33.726 10.4 256 11.4 103130 78
2002-04-22 08:20:47 51°21.298 2°33.697 9.8 256 11.4 103130 78
2002-04-22 08:20:52 51°21.3 2°33.669 10.7 256 11.4 103130 78
2002-04-22 08:20:57 51°21.303 2°33.641 10.3 257 11.4 103130 78
2002-04-22 08:21:02 51°21.306 2°33.612 10.1 256 11.4 103130 78
2002-04-22 08:21:07 51°21.308 2°33.584 10.5 255 11.4 103130 78
2002-04-22 08:21:12 51°21.311 2°33.556 10.8 256 11.4 103130 78
2002-04-22 08:21:17 51°21.313 2°33.528 10.4 255 11.4 103130 78
2002-04-22 08:21:22 51°21.316 2°33.5 10.3 255 11.4 103130 78
2002-04-22 08:21:27 51°21.318 2°33.471 10.8 255 11.4 103130 78
2002-04-22 08:21:32 51°21.321 2°33.443 10.6 255 11.4 103140 78
2002-04-22 08:21:38 51°21.324 2°33.409 10.3 257 11.4 103140 78
2002-04-22 08:21:42 51°21.325 2°33.386 10.4 252 11.4 103130 78
2002-04-22 08:21:48 51°21.328 2°33.352 10.8 257 11.4 103130 78
2002-04-22 08:21:53 51°21.33 2°33.323 9.9 254 11.4 103130 78
2002-04-22 08:21:57 51°21.333 2°33.3 10.8 259 11.4 103130 78
2002-04-22 08:22:02 51°21.335 2°33.272 10.1 256 11.4 103130 78
2002-04-22 08:22:07 51°21.339 2°33.244 10 260 11.4 103130 78
2002-04-22 08:22:12 51°21.343 2°33.215 10.4 258 11.4 103130 78
2002-04-22 08:22:18 51°21.348 2°33.181 10.5 259 11.4 103130 78
2002-04-22 08:22:22 51°21.351 2°33.159 10.2 255 11.4 103130 78
2002-04-22 08:22:27 51°21.357 2°33.13 10.2 261 11.4 103130 78
2002-04-22 08:22:32 51°21.362 2°33.102 10.5 257 11.4 103140 78
2002-04-22 08:22:37 51°21.367 2°33.074 10.6 259 11.4 103140 78
2002-04-22 08:22:43 51°21.373 2°33.04 10.1 256 11.4 103130 78
2002-04-22 08:22:48 51°21.378 2°33.012 10 258 11.4 103130 78
2002-04-22 08:22:52 51°21.382 2°32.99 9.7 256 11.4 103130 78
2002-04-22 08:22:57 51°21.387 2°32.961 10.7 259 11.4 103130 78
2002-04-22 08:23:02 51°21.392 2°32.933 10.5 257 11.4 103130 78
2002-04-22 08:23:07 51°21.397 2°32.905 10.6 259 11.4 103130 78
2002-04-22 08:23:12 51°21.402 2°32.876 10.1 260 11.4 103130 78
2002-04-22 08:23:17 51°21.408 2°32.849 10.4 261 11.4 103130 78
2002-04-22 08:23:22 51°21.415 2°32.821 9.4 261 11.4 103130 78
2002-04-22 08:23:28 51°21.424 2°32.788 9.6 262 11.4 103130 78
2002-04-22 08:23:33 51°21.431 2°32.761 10.3 262 11.4 103130 78
2002-04-22 08:23:38 51°21.44 2°32.735 10 264 11.4 103130 78
2002-04-22 08:23:43 51°21.448 2°32.708 9.9 266 11.4 103130 78
2002-04-22 08:23:48 51°21.457 2°32.682 9.2 269 11.4 103130 78
2002-04-22 08:23:52 51°21.465 2°32.662 9.7 266 11.4 103130 78
2002-04-22 08:23:57 51°21.475 2°32.637 9.2 268 11.4 103130 78
2002-04-22 08:24:02 51°21.485 2°32.612 9.1 267 11.4 103130 77
2002-04-22 08:24:08 51°21.496 2°32.582 9.6 266 11.4 103130 77
2002-04-22 08:24:12 51°21.503 2°32.561 9.3 266 11.4 103130 77
2002-04-22 08:24:18 51°21.514 2°32.531 9.5 264 11.4 103130 77
2002-04-22 08:24:22 51°21.52 2°32.51 9.8 266 11.4 103130 77
2002-04-22 08:24:28 51°21.53 2°32.479 9.7 266 11.4 103130 77
2002-04-22 08:24:32 51°21.534 2°32.457 10.3 264 11.4 103130 77
2002-04-22 08:24:38 51°21.543 2°32.425 9.9 265 11.4 103130 77
2002-04-22 08:24:42 51°21.547 2°32.403 9.6 263 11.4 103130 77
2002-04-22 08:24:47 51°21.555 2°32.376 10.2 262 11.4 103130 77
2002-04-22 08:24:53 51°21.561 2°32.343 10.3 262 11.4 103130 77
2002-04-22 08:24:57 51°21.567 2°32.322 10.4 263 11.4 103130 77
2002-04-22 08:25:02 51°21.572 2°32.294 9.8 265 11.4 103120 77
2002-04-22 08:25:07 51°21.579 2°32.267 10.4 265 11.4 103120 77
2002-04-22 08:25:12 51°21.584 2°32.239 9.5 263 11.4 103120 77
2002-04-22 08:25:18 51°21.592 2°32.206 10.5 265 11.4 103120 77
2002-04-22 08:25:22 51°21.596 2°32.184 10.1 263 11.4 103130 77
2002-04-22 08:25:28 51°21.604 2°32.151 10.1 265 11.4 103130 77
2002-04-22 08:25:32 51°21.608 2°32.129 9.8 264 11.4 103130 77
2002-04-22 08:25:37 51°21.615 2°32.102 10.7 268 11.4 103130 77
2002-04-22 08:25:42 51°21.622 2°32.075 9.8 267 11.4 103120 77
2002-04-22 08:25:47 51°21.63 2°32.049 9.9 270 11.4 103120 77
2002-04-22 08:25:52 51°21.637 2°32.023 9.4 267 11.3 103120 76
2002-04-22 08:25:57 51°21.647 2°31.998 9.5 271 11.3 103120 76
2002-04-22 08:26:02 51°21.656 2°31.973 9.1 270 11.3 103120 76
2002-04-22 08:26:07 51°21.666 2°31.949 9.4 271 11.3 103120 76
2002-04-22 08:26:12 51°21.676 2°31.924 8.7 268 11.4 103120 76
2002-04-22 08:26:17 51°21.688 2°31.902 8.8 271 11.4 103120 76
2002-04-22 08:26:22 51°21.699 2°31.879 8.5 271 11.3 103120 76
2002-04-22 08:26:28 51°21.714 2°31.853 8.2 270 11.3 103120 76
2002-04-22 08:26:32 51°21.724 2°31.835 7.5 271 11.3 103130 76
2002-04-22 08:26:37 51°21.737 2°31.815 8.2 271 11.3 103130 76
2002-04-22 08:26:42 51°21.75 2°31.794 8.1 272 11.4 103130 76
2002-04-22 08:26:48 51°21.767 2°31.771 8.1 274 11.4 103130 76
2002-04-22 08:26:52 51°21.778 2°31.755 7.9 274 11.4 103130 76
2002-04-22 08:26:57 51°21.793 2°31.737 7.4 275 11.4 103130 76
2002-04-22 08:27:02 51°21.807 2°31.718 7.6 280 11.4 103130 76
2002-04-22 08:27:08 51°21.826 2°31.698 6.9 273 11.4 103130 76
2002-04-22 08:27:12 51°21.839 2°31.685 7.5 281 11.4 103130 76
2002-04-22 08:27:17 51°21.855 2°31.669 6.3 271 11.4 103130 76
2002-04-22 08:27:23 51°21.875 2°31.652 7.2 277 11.4 103130 76
2002-04-22 08:27:28 51°21.891 2°31.637 6.4 275 11.4 103130 76
2002-04-22 08:27:32 51°21.905 2°31.627 7 278 11.4 103130 76
2002-04-22 08:27:37 51°21.921 2°31.612 6.3 273 11.4 103130 76
2002-04-22 08:27:42 51°21.939 2°31.6 7 278 11.4 103130 76
2002-04-22 08:27:47 51°21.956 2°31.586 6.4 279 11.4 103130 76
2002-04-22 08:27:52 51°21.974 2°31.576 6.4 276 11.4 103130 76
2002-04-22 08:27:57 51°21.992 2°31.564 6.3 279 11.4 103130 76
2002-04-22 08:28:02 51°22.01 2°31.553 5.8 274 11.4 103140 76
2002-04-22 08:28:08 51°22.032 2°31.54 6.5 280 11.4 103140 76
2002-04-22 08:28:12 51°22.047 2°31.532 5.5 268 11.4 103140 76
2002-04-22 08:28:18 51°22.07 2°31.522 6.3 280 11.4 103140 76
2002-04-22 08:28:22 51°22.084 2°31.515 5 271 11.4 103130 76
2002-04-22 08:28:27 51°22.104 2°31.509 5.8 278 11.4 103130 76
2002-04-22 08:28:32 51°22.123 2°31.499 5.1 270 11.4 103140 76
2002-04-22 08:28:38 51°22.146 2°31.492 6.1 276 11.4 103140 76
2002-04-22 08:28:42 51°22.161 2°31.484 5.4 265 11.4 103130 76
2002-04-22 08:28:47 51°22.181 2°31.479 5.9 273 11.4 103130 76
2002-04-22 08:28:52 51°22.2 2°31.469 4.9 268 11.4 103140 76
2002-04-22 08:28:57 51°22.219 2°31.464 5.7 275 11.4 103140 76
2002-04-22 08:29:02 51°22.238 2°31.454 4.9 272 11.4 103130 76
2002-04-22 08:29:08 51°22.262 2°31.447 5.4 277 11.4 103130 76
2002-04-22 08:29:12 51°22.276 2°31.439 5.5 271 11.4 103130 76
2002-04-22 08:29:18 51°22.3 2°31.431 5.5 274 11.4 103130 76
2002-04-22 08:29:22 51°22.314 2°31.423 5.9 276 11.5 103130 76
2002-04-22 08:29:27 51°22.334 2°31.416 5.3 271 11.5 103130 76
2002-04-22 08:29:32 51°22.353 2°31.407 6.1 277 11.5 103130 76
2002-04-22 08:29:37 51°22.371 2°31.399 5.3 268 11.5 103130 76
2002-04-22 08:29:42 51°22.39 2°31.391 6.1 278 11.5 103140 75
2002-04-22 08:29:47 51°22.408 2°31.381 5.4 272 11.5 103140 75
2002-04-22 08:29:52 51°22.428 2°31.373 6.6 282 11.5 103140 75
2002-04-22 08:29:58 51°22.449 2°31.359 5.8 272 11.5 103140 75
2002-04-22 08:30:03 51°22.467 2°31.349 6.6 280 11.5 103130 75
2002-04-22 08:30:08 51°22.484 2°31.335 6.1 272 11.5 103130 75
2002-04-22 08:30:12 51°22.498 2°31.326 7.5 278 11.5 103140 75
2002-04-22 08:30:18 51°22.518 2°31.307 6.8 271 11.5 103140 75
2002-04-22 08:30:22 51°22.531 2°31.296 7.8 273 11.5 103140 75
2002-04-22 08:30:27 51°22.546 2°31.279 7.8 273 11.5 103140 75
2002-04-22 08:30:32 51°22.562 2°31.263 7.8 269 11.5 103140 75
2002-04-22 08:30:38 51°22.578 2°31.24 8.5 270 11.5 103140 75
2002-04-22 08:30:42 51°22.589 2°31.224 8.9 271 11.5 103140 75
2002-04-22 08:30:47 51°22.601 2°31.203 8.7 273 11.5 103140 75
2002-04-22 08:30:52 51°22.612 2°31.181 9.7 268 11.5 103130 75
2002-04-22 08:30:57 51°22.623 2°31.159 9.5 271 11.5 103130 75
2002-04-22 08:31:02 51°22.633 2°31.136 9.5 268 11.6 103130 75
2002-04-22 08:31:08 51°22.645 2°31.107 10.3 270 11.6 103130 75
2002-04-22 08:31:12 51°22.652 2°31.088 9.8 265 11.5 103130 75
2002-04-22 08:31:17 51°22.661 2°31.064 9.8 267 11.5 103130 75
2002-04-22 08:31:22 51°22.668 2°31.038 9.7 261 11.5 103120 75
2002-04-22 08:31:28 51°22.676 2°31.008 10.8 267 11.5 103120 75
2002-04-22 08:31:33 51°22.682 2°30.982 9.9 262 11.5 103130 75
2002-04-22 08:31:38 51°22.687 2°30.956 10 261 11.5 103130 75
2002-04-22 08:31:43 51°22.692 2°30.929 10 259 11.5 103130 75
2002-04-22 08:31:47 51°22.695 2°30.908 11.1 261 11.5 103130 75
2002-04-22 08:31:52 51°22.697 2°30.881 10.1 257 11.6 103120 75
2002-04-22 08:31:57 51°22.701 2°30.855 11 261 11.6 103120 75
2002-04-22 08:32:02 51°22.702 2°30.828 10.9 258 11.6 103120 75
2002-04-22 08:32:07 51°22.704 2°30.801 12 260 11.6 103120 75
2002-04-22 08:32:12 51°22.705 2°30.774 10.6 257 11.6 103120 74
2002-04-22 08:32:17 51°22.707 2°30.747 10.7 259 11.6 103120 74
2002-04-22 08:32:22 51°22.707 2°30.72 10.4 255 11.6 103120 74
2002-04-22 08:32:27 51°22.708 2°30.693 11.1 261 11.6 103120 74
2002-04-22 08:32:32 51°22.709 2°30.666 11.5 258 11.6 103120 74
2002-04-22 08:32:38 51°22.71 2°30.634 10.8 258 11.6 103120 74
2002-04-22 08:32:42 51°22.71 2°30.612 11.6 259 11.6 103120 75
2002-04-22 08:32:47 51°22.711 2°30.585 11.4 258 11.6 103120 75
2002-04-22 08:32:53 51°22.711 2°30.553 11.3 257 11.6 103120 74
2002-04-22 08:32:58 51°22.712 2°30.526 11.8 260 11.6 103120 74
2002-04-22 08:33:02 51°22.713 2°30.504 11.8 260 11.6 103120 74
2002-04-22 08:33:07 51°22.714 2°30.477 11.5 258 11.6 103120 74
2002-04-22 08:33:12 51°22.714 2°30.451 10.8 257 11.6 103120 74
2002-04-22 08:33:18 51°22.714 2°30.419 11.7 255 11.6 103120 74
2002-04-22 08:33:22 51°22.713 2°30.398 11.9 256 11.6 103120 74
2002-04-22 08:33:28 51°22.713 2°30.366 11.6 256 11.6 103120 74
2002-04-22 08:33:32 51°22.712 2°30.344 11.2 258 11.6 103120 74
2002-04-22 08:33:37 51°22.711 2°30.318 11.6 256 11.6 103120 74
2002-04-22 08:33:42 51°22.709 2°30.291 11.2 256 11.6 103110 74
2002-04-22 08:33:47 51°22.708 2°30.265 12.1 258 11.6 103110 74
2002-04-22 08:33:52 51°22.707 2°30.238 12.1 256 11.6 103110 74
2002-04-22 08:33:57 51°22.705 2°30.211 11.5 258 11.6 103110 74
2002-04-22 08:34:02 51°22.704 2°30.185 11.7 256 11.6 103120 74
2002-04-22 08:34:07 51°22.703 2°30.158 11.9 257 11.6 103120 74
2002-04-22 08:34:12 51°22.702 2°30.131 11.4 255 11.6 103110 74
2002-04-22 08:34:17 51°22.701 2°30.104 11.2 256 11.6 103110 74
2002-04-22 08:34:22 51°22.701 2°30.077 11.9 257 11.6 103120 74
2002-04-22 08:34:28 51°22.699 2°30.045 11.9 256 11.6 103120 74
2002-04-22 08:34:32 51°22.699 2°30.024 10.7 257 11.6 103110 74
2002-04-22 08:34:37 51°22.698 2°29.997 11.9 257 11.6 103110 74
2002-04-22 08:34:43 51°22.697 2°29.965 11.4 257 11.6 103110 74
2002-04-22 08:34:48 51°22.697 2°29.938 11.9 255 11.6 103110 74
2002-04-22 08:34:52 51°22.696 2°29.917 12 257 11.6 103110 74
2002-04-22 08:34:57 51°22.695 2°29.89 11.3 255 11.6 103110 74
2002-04-22 08:35:02 51°22.695 2°29.863 11 255 11.6 103120 74
2002-04-22 08:35:08 51°22.694 2°29.831 11.7 257 11.6 103120 74
2002-04-22 08:35:12 51°22.694 2°29.81 10.9 255 11.6 103110 74
2002-04-22 08:35:18 51°22.693 2°29.778 11.5 254 11.6 103110 74
2002-04-22 08:35:22 51°22.692 2°29.756 11.6 257 11.6 103110 74
2002-04-22 08:35:27 51°22.691 2°29.73 11.3 255 11.6 103110 74
2002-04-22 08:35:32 51°22.691 2°29.703 11.1 255 11.6 103120 74
2002-04-22 08:35:38 51°22.69 2°29.671 10.9 255 11.6 103120 74
2002-04-22 08:35:42 51°22.69 2°29.65 10.9 254 11.6 103120 74
2002-04-22 08:35:47 51°22.689 2°29.623 11.2 254 11.6 103120 74
2002-04-22 08:35:52 51°22.688 2°29.597 10.9 254 11.6 103120 74
2002-04-22 08:35:57 51°22.688 2°29.57 11.5 253 11.6 103120 74
2002-04-22 08:36:02 51°22.687 2°29.543 10.8 253 11.6 103120 74
2002-04-22 08:36:07 51°22.686 2°29.517 11.3 253 11.6 103120 74
2002-04-22 08:36:12 51°22.685 2°29.491 10.9 254 11.6 103120 74
2002-04-22 08:36:17 51°22.685 2°29.464 11.7 254 11.6 103120 74
2002-04-22 08:36:22 51°22.684 2°29.438 11.1 253 11.6 103120 74